Time;durP1;ratioP1;P1;durP2;ratioP2;P2;SDS_P1;SDS_P2;PMS_P1;PMS_P2;Temp;Humidity;BMP_temperature;BMP_pressure;BME280_temperature;BME280_humidity;BME280_pressure;Samples;Min_cycle;Max_cycle;Signal;HPM_P1;HPM_P2
2022/08/22 00:00:21;;;;;;;12.40;4.63;;;16.80;99.90;;;;;;5029229;28;20049;-85
2022/08/22 00:03:13;;;;;;;9.80;3.42;;;16.80;99.90;;;;;;5008081;28;20076;-85
2022/08/22 00:05:54;;;;;;;6.85;3.13;;;16.80;99.90;;;;;;5033418;28;20055;-85
2022/08/22 00:08:42;;;;;;;8.20;3.78;;;16.70;99.90;;;;;;4987953;28;20049;-85
2022/08/22 00:11:24;;;;;;;8.32;3.38;;;16.80;99.90;;;;;;5013178;28;20131;-85
2022/08/22 00:14:19;;;;;;;12.75;3.30;;;16.80;99.90;;;;;;5017648;28;20045;-85
2022/08/22 00:17:10;;;;;;;7.20;3.50;;;16.70;99.90;;;;;;5004398;28;20048;-85
2022/08/22 00:19:40;;;;;;;7.55;3.47;;;16.70;99.90;;;;;;5006366;28;20428;-85
2022/08/22 00:22:28;;;;;;;9.88;3.38;;;16.70;99.90;;;;;;5020590;28;20048;-85
2022/08/22 00:25:12;;;;;;;8.43;3.90;;;16.70;99.90;;;;;;5006408;28;20495;-85
2022/08/22 00:28:01;;;;;;;9.77;3.53;;;16.70;99.90;;;;;;5014772;28;20048;-85
2022/08/22 00:30:33;;;;;;;10.13;3.65;;;16.80;99.90;;;;;;5033640;28;20052;-85
2022/08/22 00:33:04;;;;;;;10.65;3.85;;;16.80;99.90;;;;;;5000141;28;20045;-85
2022/08/22 00:35:46;;;;;;;8.50;3.70;;;16.70;99.90;;;;;;5029263;28;20492;-85
2022/08/22 00:38:29;;;;;;;8.88;4.00;;;16.70;99.90;;;;;;5013744;28;20052;-85
2022/08/22 00:41:23;;;;;;;8.70;4.22;;;16.70;99.90;;;;;;5036605;28;20521;-86
2022/08/22 00:44:36;;;;;;;9.73;4.07;;;16.80;99.90;;;;;;5004471;28;20051;-85
2022/08/22 00:47:18;;;;;;;11.35;4.28;;;16.70;99.90;;;;;;5026699;28;20627;-84
2022/08/22 00:50:06;;;;;;;9.05;3.97;;;16.70;99.90;;;;;;5038756;28;20036;-85
2022/08/22 00:52:53;;;;;;;10.13;3.33;;;16.80;99.90;;;;;;5031643;28;20666;-85
2022/08/22 00:55:29;;;;;;;11.90;4.30;;;16.80;99.90;;;;;;5018594;28;20068;-85
2022/08/22 00:58:33;;;;;;;6.53;3.70;;;16.80;99.90;;;;;;5025989;28;20044;-85
2022/08/22 01:01:10;;;;;;;9.95;3.85;;;16.70;99.90;;;;;;5008727;28;20515;-85
2022/08/22 01:03:45;;;;;;;9.30;3.85;;;16.70;99.90;;;;;;5009569;28;20044;-85
2022/08/22 01:06:22;;;;;;;9.32;4.32;;;16.70;99.90;;;;;;5001451;28;20098;-85
2022/08/22 01:09:04;;;;;;;8.63;3.90;;;16.70;99.90;;;;;;5016179;28;20053;-85
2022/08/22 01:11:44;;;;;;;7.13;3.60;;;16.60;99.90;;;;;;5003104;28;20611;-85
2022/08/22 01:14:39;;;;;;;9.27;4.32;;;16.50;99.90;;;;;;5030462;28;20548;-84
2022/08/22 01:17:32;;;;;;;10.18;4.15;;;16.50;99.90;;;;;;5004360;28;20047;-84
2022/08/22 01:20:17;;;;;;;7.53;3.88;;;16.40;99.90;;;;;;4996418;28;20090;-85
2022/08/22 01:23:20;;;;;;;9.27;3.83;;;16.50;99.90;;;;;;5012284;28;20162;-85
2022/08/22 01:26:44;;;;;;;8.20;3.63;;;16.40;99.90;;;;;;5013509;28;20059;-85
2022/08/22 01:29:52;;;;;;;13.15;4.13;;;16.30;99.90;;;;;;4998370;28;20583;-85
2022/08/22 01:32:41;;;;;;;6.80;4.20;;;16.20;99.90;;;;;;4988307;28;20135;-85
2022/08/22 01:35:35;;;;;;;9.50;4.28;;;16.20;99.90;;;;;;4998022;28;20055;-85
2022/08/22 01:38:24;;;;;;;9.23;4.00;;;16.20;99.90;;;;;;5031335;28;20047;-85
2022/08/22 01:41:15;;;;;;;9.10;3.90;;;16.20;99.90;;;;;;5028929;28;20041;-85
2022/08/22 01:44:11;;;;;;;9.73;4.85;;;16.20;99.90;;;;;;5018120;28;20051;-85
2022/08/22 01:46:49;;;;;;;9.27;4.97;;;16.20;99.90;;;;;;5006357;28;20044;-85
2022/08/22 01:49:21;;;;;;;10.45;4.28;;;16.20;99.90;;;;;;5018015;28;20048;-85
2022/08/22 01:51:59;;;;;;;9.48;4.50;;;16.20;99.90;;;;;;5030858;28;20052;-84
2022/08/22 01:54:44;;;;;;;8.30;4.65;;;16.20;99.90;;;;;;5020839;28;20056;-85
2022/08/22 01:57:12;;;;;;;10.50;5.20;;;16.20;99.90;;;;;;5015947;28;20040;-84
2022/08/22 01:59:45;;;;;;;12.02;5.13;;;16.20;99.90;;;;;;4999133;28;20049;-85
2022/08/22 02:02:19;;;;;;;13.13;5.50;;;16.10;99.90;;;;;;5013581;28;20044;-84
2022/08/22 02:05:05;;;;;;;17.15;5.93;;;16.10;99.90;;;;;;5004251;28;20055;-85
2022/08/22 02:07:34;;;;;;;12.05;5.78;;;16.10;99.90;;;;;;5000393;28;20433;-85
2022/08/22 02:10:10;;;;;;;9.70;4.90;;;16.10;99.90;;;;;;5016807;28;20126;-84
2022/08/22 02:13:22;;;;;;;10.73;5.38;;;16.10;99.90;;;;;;5013353;28;20588;-85
2022/08/22 02:16:15;;;;;;;12.43;5.22;;;16.10;99.90;;;;;;5005932;28;20598;-85
2022/08/22 02:19:02;;;;;;;9.32;5.13;;;16.10;99.90;;;;;;5004189;28;20039;-85
2022/08/22 02:22:05;;;;;;;10.32;5.57;;;16.00;99.90;;;;;;5018964;28;20055;-85
2022/08/22 02:24:52;;;;;;;11.57;5.30;;;16.10;99.90;;;;;;5003666;28;20052;-85
2022/08/22 02:27:44;;;;;;;12.45;5.47;;;16.10;99.90;;;;;;5015062;28;20106;-85
2022/08/22 02:30:13;;;;;;;;;;;16.10;99.90;;;;;;5007293;28;20059;-85
2022/08/22 02:32:40;;;;;;;10.77;5.50;;;16.20;99.90;;;;;;4981571;28;20333;-85
2022/08/22 02:35:19;;;;;;;12.15;5.72;;;16.20;99.90;;;;;;5029391;28;20152;-85
2022/08/22 02:38:18;;;;;;;14.23;5.80;;;16.20;99.90;;;;;;5016706;28;20454;-84
2022/08/22 02:41:10;;;;;;;12.32;5.30;;;16.20;99.90;;;;;;5011563;28;20528;-84
2022/08/22 02:43:47;;;;;;;;;;;16.20;99.90;;;;;;5012509;28;20053;-85
2022/08/22 02:46:21;;;;;;;12.02;6.25;;;16.10;99.90;;;;;;5000146;28;19967;-85
2022/08/22 02:49:03;;;;;;;11.48;5.13;;;16.20;99.90;;;;;;4999010;28;20052;-85
2022/08/22 02:51:32;;;;;;;;;;;16.10;99.90;;;;;;4998016;28;20506;-85
2022/08/22 02:54:26;;;;;;;12.38;5.50;;;16.10;99.90;;;;;;5003848;28;21664;-85
2022/08/22 02:57:15;;;;;;;14.55;5.63;;;16.10;99.90;;;;;;5002690;28;20037;-85
2022/08/22 03:00:07;;;;;;;9.52;5.30;;;16.10;99.90;;;;;;5013922;28;20070;-85
2022/08/22 03:02:39;;;;;;;11.27;5.30;;;16.10;99.90;;;;;;5019978;28;20199;-85
2022/08/22 03:05:25;;;;;;;8.93;4.82;;;16.00;99.90;;;;;;5001267;28;20138;-85
2022/08/22 03:08:08;;;;;;;10.73;5.75;;;16.00;99.90;;;;;;4985706;28;20045;-85
2022/08/22 03:10:53;;;;;;;11.90;5.57;;;16.00;99.90;;;;;;5016879;28;20587;-85
2022/08/22 03:14:02;;;;;;;12.35;5.80;;;16.00;99.90;;;;;;5017697;28;20040;-85
2022/08/22 03:16:33;;;;;;;10.38;5.18;;;16.10;99.90;;;;;;4998906;28;20110;-85
2022/08/22 03:19:08;;;;;;;9.80;6.18;;;16.00;99.90;;;;;;4981572;28;20415;-85
2022/08/22 03:21:46;;;;;;;9.27;5.50;;;16.00;99.90;;;;;;5007445;28;20125;-85
2022/08/22 03:24:29;;;;;;;10.65;5.22;;;16.00;99.90;;;;;;5012818;28;20072;-85
2022/08/22 03:27:09;;;;;;;10.93;5.95;;;16.00;99.90;;;;;;4997626;28;20102;-85
2022/08/22 03:29:42;;;;;;;10.85;5.35;;;16.00;99.90;;;;;;5013938;28;20052;-85
2022/08/22 03:32:14;;;;;;;10.77;5.68;;;16.10;99.90;;;;;;4981439;28;20049;-85
2022/08/22 03:35:13;;;;;;;;;;;16.00;99.90;;;;;;5019629;28;20108;-85
2022/08/22 03:37:49;;;;;;;12.98;5.78;;;16.00;99.90;;;;;;4975703;28;20442;-85
2022/08/22 03:40:19;;;;;;;10.40;5.45;;;15.90;99.90;;;;;;5008358;28;20457;-85
2022/08/22 03:42:54;;;;;;;16.13;6.07;;;15.90;99.90;;;;;;4986715;28;20052;-84
2022/08/22 03:45:51;;;;;;;11.52;5.38;;;16.00;99.90;;;;;;4984680;28;20041;-84
2022/08/22 03:48:42;;;;;;;12.05;5.57;;;15.90;99.90;;;;;;5015583;28;20056;-85
2022/08/22 03:51:14;;;;;;;15.77;5.80;;;15.90;99.90;;;;;;5014428;28;20090;-85
2022/08/22 03:54:10;;;;;;;12.20;5.60;;;15.90;99.90;;;;;;5020090;28;20090;-85
2022/08/22 03:57:01;;;;;;;12.07;6.00;;;15.90;99.90;;;;;;5015975;28;20703;-86
2022/08/22 03:59:30;;;;;;;11.48;6.03;;;15.90;99.90;;;;;;5014737;28;20114;-85
2022/08/22 04:02:27;;;;;;;11.95;5.90;;;15.90;99.90;;;;;;4989121;28;20102;-86
2022/08/22 04:05:33;;;;;;;10.25;6.03;;;15.90;99.90;;;;;;4981061;28;20127;-85
2022/08/22 04:08:32;;;;;;;10.18;6.07;;;15.90;99.90;;;;;;5012970;28;20065;-86
2022/08/22 04:11:30;;;;;;;11.52;6.18;;;15.90;99.90;;;;;;4987284;28;20393;-85
2022/08/22 04:14:23;;;;;;;8.98;6.15;;;15.90;99.90;;;;;;4971509;28;20152;-85
2022/08/22 04:17:10;;;;;;;12.57;6.28;;;15.90;99.90;;;;;;4999048;28;20124;-85
2022/08/22 04:19:59;;;;;;;15.25;6.43;;;15.80;99.90;;;;;;4990324;28;20128;-85
2022/08/22 04:23:08;;;;;;;12.20;6.30;;;15.90;99.90;;;;;;5009158;28;20037;-85
2022/08/22 04:25:42;;;;;;;13.52;6.30;;;15.90;99.90;;;;;;5009998;28;20037;-85
2022/08/22 04:28:23;;;;;;;14.68;5.88;;;16.00;99.90;;;;;;4984714;28;20037;-85
2022/08/22 04:31:00;;;;;;;12.60;6.93;;;15.90;99.90;;;;;;4996800;28;20044;-85
2022/08/22 04:33:36;;;;;;;12.95;6.30;;;15.90;99.90;;;;;;5032816;28;20049;-85
2022/08/22 04:36:16;;;;;;;15.15;6.07;;;16.00;99.90;;;;;;5013961;28;20465;-85
2022/08/22 04:38:46;;;;;;;17.05;6.43;;;16.00;99.90;;;;;;5015589;28;20599;-85
2022/08/22 04:41:23;;;;;;;15.30;6.65;;;16.00;99.90;;;;;;5011558;28;20036;-85
2022/08/22 04:44:09;;;;;;;10.90;6.72;;;16.00;99.90;;;;;;4995861;28;20037;-85
2022/08/22 04:46:45;;;;;;;14.38;6.25;;;16.10;99.90;;;;;;5010140;28;20042;-85
2022/08/22 04:49:15;;;;;;;11.32;6.13;;;16.10;99.90;;;;;;4978580;28;20096;-85
2022/08/22 04:52:12;;;;;;;15.57;6.13;;;16.10;99.90;;;;;;4996706;28;20049;-85
2022/08/22 04:55:23;;;;;;;24.73;6.22;;;16.10;99.90;;;;;;4996785;28;20048;-85
2022/08/22 04:58:09;;;;;;;9.63;5.93;;;16.20;99.90;;;;;;5029523;28;20047;-86
2022/08/22 05:00:48;;;;;;;13.07;6.07;;;16.20;99.90;;;;;;4992679;28;20045;-85
2022/08/22 05:03:17;;;;;;;8.35;5.93;;;16.20;99.90;;;;;;5011661;28;20787;-85
2022/08/22 05:05:48;;;;;;;11.88;5.82;;;16.30;99.90;;;;;;5000495;28;20045;-85
2022/08/22 05:08:21;;;;;;;11.00;6.00;;;16.40;99.90;;;;;;4990023;28;20127;-86
2022/08/22 05:10:49;;;;;;;11.30;5.80;;;16.40;99.90;;;;;;5013126;28;20043;-85
2022/08/22 05:13:58;;;;;;;16.85;6.18;;;16.50;99.90;;;;;;4989911;28;20064;-86
2022/08/22 05:16:37;;;;;;;12.68;6.00;;;16.50;99.90;;;;;;5001240;28;20047;-86
2022/08/22 05:19:14;;;;;;;11.57;5.90;;;16.50;99.90;;;;;;5019698;28;20047;-85
2022/08/22 05:21:43;;;;;;;11.27;6.38;;;16.50;99.90;;;;;;5009399;28;20044;-87
2022/08/22 05:24:24;;;;;;;11.73;5.45;;;16.50;99.90;;;;;;5014903;28;20342;-87
2022/08/22 05:26:54;;;;;;;8.63;5.10;;;16.50;99.90;;;;;;5011898;28;20064;-83
2022/08/22 05:29:30;;;;;;;10.10;5.60;;;16.60;99.90;;;;;;5023184;28;20048;-84
2022/08/22 05:32:06;;;;;;;9.88;5.63;;;16.60;99.90;;;;;;5022379;28;20048;-84
2022/08/22 05:34:39;;;;;;;12.05;5.93;;;16.60;99.90;;;;;;5014561;28;20095;-83
2022/08/22 05:37:23;;;;;;;14.00;6.57;;;16.70;99.90;;;;;;5018523;28;20097;-84
2022/08/22 05:39:55;;;;;;;11.85;6.35;;;16.70;99.90;;;;;;5014783;28;20054;-85
2022/08/22 05:42:32;;;;;;;9.63;5.40;;;16.70;99.90;;;;;;5016492;28;20047;-85
2022/08/22 05:45:05;;;;;;;13.30;6.85;;;16.70;99.90;;;;;;5022254;28;20049;-85
2022/08/22 05:47:43;;;;;;;12.25;5.90;;;16.80;99.90;;;;;;5014063;28;20040;-86
2022/08/22 05:50:20;;;;;;;9.23;6.38;;;16.80;99.90;;;;;;4996950;28;20101;-85
2022/08/22 05:52:50;;;;;;;13.13;6.00;;;16.80;99.90;;;;;;5046174;28;20048;-84
2022/08/22 05:55:40;;;;;;;12.52;5.18;;;16.80;99.90;;;;;;5012940;28;20120;-84
2022/08/22 05:58:38;;;;;;;12.23;5.63;;;16.80;99.90;;;;;;5002403;28;20040;-85
2022/08/22 06:01:26;;;;;;;12.25;6.93;;;16.90;99.90;;;;;;5011675;28;20586;-84
2022/08/22 06:04:07;;;;;;;14.27;5.93;;;16.90;99.90;;;;;;5013781;28;20048;-85
2022/08/22 06:06:51;;;;;;;11.80;6.00;;;16.90;99.90;;;;;;4988792;28;20044;-84
2022/08/22 06:09:21;;;;;;;11.15;5.28;;;17.00;99.90;;;;;;4994444;28;20552;-84
2022/08/22 06:12:12;;;;;;;12.27;5.90;;;17.00;99.90;;;;;;5016930;28;20077;-84
2022/08/22 06:14:51;;;;;;;11.20;5.82;;;17.10;99.90;;;;;;4992365;28;20065;-84
2022/08/22 06:17:23;;;;;;;15.18;5.78;;;17.10;99.90;;;;;;4995958;28;20512;-84
2022/08/22 06:19:51;;;;;;;10.13;5.63;;;17.10;99.90;;;;;;4985656;28;20049;-84
2022/08/22 06:22:31;;;;;;;11.63;6.10;;;17.10;99.90;;;;;;5003895;28;20102;-84
2022/08/22 06:25:29;;;;;;;9.65;5.15;;;17.20;99.90;;;;;;4977865;28;20587;-84
2022/08/22 06:27:58;;;;;;;9.45;5.07;;;17.20;99.90;;;;;;4990696;28;20293;-84
2022/08/22 06:30:27;;;;;;;9.32;5.43;;;17.20;99.90;;;;;;4993175;28;20132;-84
2022/08/22 06:32:59;;;;;;;10.40;5.40;;;17.40;99.90;;;;;;4977100;28;20049;-85
2022/08/22 06:38:34;;;;;;;10.68;5.03;;;17.30;99.90;;;;;;4995355;28;20098;-84
2022/08/22 06:41:05;;;;;;;11.47;4.77;;;17.40;99.90;;;;;;5009215;28;20044;-79
2022/08/22 06:43:38;;;;;;;14.52;5.15;;;17.50;99.90;;;;;;5014563;28;20436;-79
2022/08/22 06:46:05;;;;;;;11.50;4.70;;;17.40;99.90;;;;;;4990338;28;20053;-79
2022/08/22 06:48:35;;;;;;;24.75;16.95;;;17.50;99.90;;;;;;5006464;28;20052;-79
2022/08/22 06:51:05;;;;;;;15.80;10.63;;;17.70;99.90;;;;;;5035503;28;20041;-80
2022/08/22 06:53:44;;;;;;;9.02;4.68;;;17.70;99.90;;;;;;4996683;28;20156;-79
2022/08/22 06:56:12;;;;;;;10.95;5.10;;;17.70;99.90;;;;;;5001947;28;20032;-80
2022/08/22 06:58:43;;;;;;;12.23;5.25;;;17.70;99.90;;;;;;4997458;28;20435;-80
2022/08/22 07:01:18;;;;;;;11.13;5.28;;;17.70;99.90;;;;;;5009740;28;20044;-79
2022/08/22 07:03:52;;;;;;;14.82;5.85;;;17.70;99.90;;;;;;5008903;28;20041;-80
2022/08/22 07:06:28;;;;;;;12.38;5.22;;;17.80;99.90;;;;;;4998072;28;20033;-79
2022/08/22 07:08:55;;;;;;;9.88;5.18;;;17.80;99.90;;;;;;5038889;28;20055;-80
2022/08/22 07:11:29;;;;;;;9.48;4.85;;;17.80;99.90;;;;;;5014905;28;20045;-80
2022/08/22 07:14:03;;;;;;;11.23;5.25;;;17.90;99.90;;;;;;4992773;28;20123;-79
2022/08/22 07:16:50;;;;;;;13.50;4.93;;;17.90;99.90;;;;;;5031439;28;20499;-80
2022/08/22 07:19:44;;;;;;;8.45;4.47;;;17.90;99.90;;;;;;5019166;28;20143;-80
2022/08/22 07:22:29;;;;;;;10.65;5.75;;;18.10;99.90;;;;;;5018959;28;20468;-79
2022/08/22 07:25:15;;;;;;;10.82;5.10;;;18.10;99.90;;;;;;5040706;28;20065;-79
2022/08/22 07:27:59;;;;;;;17.55;10.48;;;18.20;99.90;;;;;;5006523;28;20047;-79
2022/08/22 07:30:38;;;;;;;14.00;4.60;;;18.30;99.90;;;;;;5012627;28;20493;-79
2022/08/22 07:33:18;;;;;;;9.05;4.15;;;18.40;99.90;;;;;;5013711;28;20086;-79
2022/08/22 07:35:54;;;;;;;11.75;4.95;;;18.50;99.90;;;;;;5022946;28;20118;-79
2022/08/22 07:38:57;;;;;;;13.25;5.22;;;18.50;99.90;;;;;;4999402;28;20098;-79
2022/08/22 07:41:35;;;;;;;10.77;4.60;;;18.70;99.90;;;;;;4963198;28;20048;-79
2022/08/22 07:44:17;;;;;;;13.50;8.43;;;18.80;99.90;;;;;;5001351;28;20571;-78
2022/08/22 07:46:50;;;;;;;17.48;8.48;;;18.90;99.90;;;;;;5016869;28;20040;-79
2022/08/22 07:49:41;;;;;;;9.57;4.03;;;19.00;99.90;;;;;;5015958;28;20048;-79
2022/08/22 07:52:11;;;;;;;16.92;5.28;;;19.20;99.90;;;;;;5020984;28;20076;-79
2022/08/22 07:54:51;;;;;;;11.20;5.57;;;19.30;99.90;;;;;;5009623;28;20036;-79
2022/08/22 07:57:42;;;;;;;10.40;3.80;;;19.40;99.90;;;;;;5029727;28;20508;-79
2022/08/22 08:00:20;;;;;;;11.50;4.35;;;19.60;99.90;;;;;;5029800;28;20045;-78
2022/08/22 08:02:57;;;;;;;11.00;4.65;;;19.70;99.90;;;;;;5009909;28;20101;-79
2022/08/22 08:05:27;;;;;;;9.73;3.53;;;19.70;99.90;;;;;;5004261;28;20052;-79
2022/08/22 08:07:55;;;;;;;14.40;9.05;;;19.90;99.90;;;;;;5010647;28;20056;-79
2022/08/22 08:10:35;;;;;;;10.80;3.70;;;19.90;99.90;;;;;;5023054;28;20458;-79
2022/08/22 08:13:06;;;;;;;11.63;3.70;;;19.80;99.90;;;;;;5008476;28;20048;-80
2022/08/22 08:15:36;;;;;;;10.73;3.40;;;19.90;99.90;;;;;;5026375;28;20041;-80
2022/08/22 08:18:07;;;;;;;22.70;15.27;;;20.00;99.90;;;;;;5001454;28;20071;-80
2022/08/22 08:20:35;;;;;;;12.13;4.07;;;20.10;99.90;;;;;;4998328;28;20091;-79
2022/08/22 08:23:03;;;;;;;7.70;4.13;;;20.20;99.90;;;;;;4999127;28;20499;-79
2022/08/22 08:25:35;;;;;;;12.75;7.65;;;20.30;99.90;;;;;;5031372;28;20586;-79
2022/08/22 08:30:58;;;;;;;12.27;6.68;;;20.50;99.90;;;;;;5015075;28;20051;-79
2022/08/22 08:33:28;;;;;;;10.82;3.45;;;20.70;99.90;;;;;;5013493;28;20053;-79
2022/08/22 08:36:40;;;;;;;9.38;3.00;;;20.80;99.90;;;;;;5015150;28;20047;-79
2022/08/22 08:39:18;;;;;;;14.52;6.85;;;20.80;99.90;;;;;;4977332;28;20520;-79
2022/08/22 08:42:13;;;;;;;9.32;3.15;;;20.80;99.90;;;;;;5020972;28;20097;-80
2022/08/22 08:44:40;;;;;;;12.23;7.65;;;20.80;99.90;;;;;;5048971;28;20049;-80
2022/08/22 08:47:40;;;;;;;12.30;3.80;;;20.70;99.90;;;;;;5008932;28;20079;-79
2022/08/22 08:50:34;;;;;;;10.85;4.88;;;20.70;99.90;;;;;;4998848;28;20143;-80
2022/08/22 08:53:19;;;;;;;13.05;6.00;;;20.70;99.90;;;;;;4995871;28;20048;-79
2022/08/22 08:56:14;;;;;;;12.88;2.92;;;20.70;99.90;;;;;;5000062;28;20046;-80
2022/08/22 08:59:07;;;;;;;10.13;3.20;;;20.70;99.90;;;;;;5044523;28;20048;-79
2022/08/22 09:01:58;;;;;;;11.27;4.45;;;20.80;99.90;;;;;;5002379;28;20044;-80
2022/08/22 09:05:02;;;;;;;12.90;3.70;;;20.90;99.90;;;;;;5010328;28;20339;-80
2022/08/22 09:07:30;;;;;;;10.00;3.33;;;21.40;99.90;;;;;;5004565;28;20043;-79
2022/08/22 09:10:18;;;;;;;13.32;4.57;;;21.60;99.90;;;;;;5029400;28;20139;-80
2022/08/22 09:13:10;;;;;;;10.27;3.63;;;21.90;99.90;;;;;;5013253;28;20565;-80
2022/08/22 09:15:40;;;;;;;11.85;3.53;;;22.00;99.90;;;;;;4985636;28;20049;-80
2022/08/22 09:18:24;;;;;;;16.15;5.20;;;22.40;99.90;;;;;;5018980;28;20067;-80
2022/08/22 09:21:18;;;;;;;10.13;3.72;;;22.60;99.90;;;;;;4992423;28;20488;-81
2022/08/22 09:23:50;;;;;;;14.70;9.70;;;22.90;99.90;;;;;;5011085;28;20511;-80
2022/08/22 09:26:51;;;;;;;18.52;12.85;;;23.00;99.90;;;;;;5009495;28;20049;-79
2022/08/22 09:29:43;;;;;;;21.13;15.05;;;23.30;99.90;;;;;;5013152;28;20428;-85
2022/08/22 09:32:27;;;;;;;11.52;3.35;;;23.70;99.90;;;;;;5031105;28;20056;-85
2022/08/22 09:35:06;;;;;;;33.95;29.77;;;24.20;99.90;;;;;;4995639;28;20094;-85
2022/08/22 09:37:48;;;;;;;11.65;5.57;;;24.60;99.90;;;;;;5004917;28;20060;-86
2022/08/22 09:40:27;;;;;;;11.85;6.30;;;24.60;99.90;;;;;;5018006;28;20113;-87
2022/08/22 09:43:08;;;;;;;10.82;3.08;;;24.70;99.90;;;;;;5005245;28;20051;-86
2022/08/22 09:45:48;;;;;;;8.75;2.75;;;24.40;99.90;;;;;;5009311;28;20079;-86
2022/08/22 09:48:42;;;;;;;8.65;2.72;;;24.70;99.90;;;;;;5024775;28;20049;-86
2022/08/22 09:51:17;;;;;;;8.80;3.03;;;24.40;99.90;;;;;;5016551;28;20067;-86
2022/08/22 09:54:08;;;;;;;11.18;2.78;;;24.40;99.90;;;;;;5031390;28;20416;-84
2022/08/22 09:56:42;;;;;;;8.65;2.40;;;24.40;99.90;;;;;;5013316;28;20044;-84
2022/08/22 09:59:17;;;;;;;8.52;2.30;;;24.40;99.90;;;;;;5030682;28;20835;-85
2022/08/22 10:01:54;;;;;;;7.45;2.20;;;24.30;99.90;;;;;;4995332;28;20073;-86
2022/08/22 10:04:50;;;;;;;10.23;2.42;;;24.20;99.90;;;;;;5034845;28;20098;-86
2022/08/22 10:07:47;;;;;;;7.50;2.33;;;24.10;99.90;;;;;;5030225;28;20499;-85
2022/08/22 10:10:23;;;;;;;7.47;2.40;;;24.30;99.90;;;;;;5030245;28;20049;-85
2022/08/22 10:13:01;;;;;;;10.32;2.85;;;24.20;99.90;;;;;;5023292;28;20048;-85
2022/08/22 10:15:47;;;;;;;10.45;3.75;;;23.90;99.90;;;;;;4996641;28;20044;-85
2022/08/22 10:18:38;;;;;;;10.00;2.60;;;23.80;99.90;;;;;;5028286;28;20673;-85
2022/08/22 10:21:14;;;;;;;9.43;3.72;;;23.60;99.90;;;;;;5010880;28;20470;-85
2022/08/22 10:23:56;;;;;;;11.52;3.00;;;23.60;99.90;;;;;;4996073;28;20591;-84
2022/08/22 10:26:32;;;;;;;7.80;2.60;;;23.70;99.90;;;;;;5013414;28;20048;-84
2022/08/22 10:29:34;;;;;;;8.98;3.78;;;23.70;99.90;;;;;;4997731;28;20059;-86
2022/08/22 10:32:29;;;;;;;8.50;2.97;;;23.60;99.90;;;;;;5019640;28;20044;-85
2022/08/22 10:35:02;;;;;;;7.40;2.35;;;23.70;99.90;;;;;;5001640;28;20098;-84
2022/08/22 10:37:36;;;;;;;8.30;2.53;;;23.80;99.90;;;;;;5020692;28;20055;-85
2022/08/22 10:40:23;;;;;;;12.20;8.10;;;23.80;99.90;;;;;;5014831;28;20120;-85
2022/08/22 10:43:14;;;;;;;15.10;7.03;;;23.90;99.90;;;;;;5026849;28;20164;-85
2022/08/22 10:45:57;;;;;;;10.10;4.93;;;24.20;99.90;;;;;;5045012;28;20387;-83
2022/08/22 10:48:40;;;;;;;11.32;4.03;;;24.60;99.90;;;;;;5010958;28;20043;-84
2022/08/22 10:51:32;;;;;;;6.70;2.42;;;25.00;99.90;;;;;;5012642;28;20101;-84
2022/08/22 10:54:13;;;;;;;8.77;2.70;;;25.50;99.90;;;;;;5005325;28;20095;-84
2022/08/22 10:56:42;;;;;;;9.73;4.78;;;25.90;99.90;;;;;;4999985;28;20071;-85
2022/08/22 10:59:35;;;;;;;7.18;3.60;;;26.20;99.90;;;;;;5018492;28;20082;-84
2022/08/22 11:02:29;;;;;;;13.63;7.38;;;26.40;96.80;;;;;;5016285;28;20048;-84
2022/08/22 11:05:08;;;;;;;12.77;6.55;;;26.90;95.20;;;;;;5013305;28;20060;-85
2022/08/22 11:07:53;;;;;;;14.75;9.82;;;27.40;93.10;;;;;;4998255;28;20995;-85
2022/08/22 11:10:37;;;;;;;8.25;3.60;;;27.00;90.10;;;;;;5035088;28;20516;-85
2022/08/22 11:13:29;;;;;;;6.10;2.50;;;27.60;90.80;;;;;;5046739;28;20783;-84
2022/08/22 11:16:19;;;;;;;5.60;2.15;;;27.80;81.30;;;;;;5011928;28;20087;-83
2022/08/22 11:19:16;;;;;;;13.07;6.25;;;28.30;80.10;;;;;;4998042;28;20246;-85
2022/08/22 11:22:03;;;;;;;8.43;4.55;;;27.80;75.20;;;;;;5026006;28;20051;-84
2022/08/22 11:24:41;;;;;;;9.98;2.88;;;27.70;74.50;;;;;;5000854;28;20044;-84
2022/08/22 11:27:36;;;;;;;7.65;2.90;;;27.70;75.80;;;;;;5004042;28;20047;-85
2022/08/22 11:30:13;;;;;;;10.57;3.70;;;27.70;76.50;;;;;;5037604;28;20040;-85
2022/08/22 11:33:09;;;;;;;7.70;3.13;;;27.60;73.90;;;;;;5012651;28;20040;-85
2022/08/22 11:35:59;;;;;;;8.45;3.80;;;27.80;75.70;;;;;;4996113;28;20041;-86
2022/08/22 11:39:02;;;;;;;8.18;4.75;;;28.50;76.00;;;;;;5003324;28;20036;-85
2022/08/22 11:41:46;;;;;;;10.60;4.25;;;29.30;73.40;;;;;;5045679;28;20083;-84
2022/08/22 11:44:26;;;;;;;6.90;2.30;;;29.80;70.80;;;;;;5016327;28;20479;-85
2022/08/22 11:46:57;;;;;;;7.70;2.40;;;29.90;67.90;;;;;;5003131;28;20102;-85
2022/08/22 11:49:49;;;;;;;9.15;3.92;;;29.80;68.00;;;;;;5004706;28;20043;-87
2022/08/22 11:52:22;;;;;;;6.80;1.90;;;29.70;68.50;;;;;;5024517;28;20041;-86
2022/08/22 11:55:04;;;;;;;6.45;1.75;;;29.50;67.70;;;;;;5020477;28;20040;-86
2022/08/22 11:57:39;;;;;;;9.30;3.95;;;29.20;66.00;;;;;;5020142;28;20043;-86
2022/08/22 12:00:43;;;;;;;6.70;2.30;;;28.30;67.70;;;;;;5023490;28;20049;-87
2022/08/22 12:03:45;;;;;;;8.45;2.28;;;28.20;67.00;;;;;;5032846;28;20053;-86
2022/08/22 12:06:30;;;;;;;7.22;1.80;;;27.80;71.50;;;;;;5015885;28;20126;-86
2022/08/22 12:09:30;;;;;;;9.32;5.40;;;27.70;69.50;;;;;;5016100;28;20053;-87
2022/08/22 12:12:17;;;;;;;9.50;3.55;;;28.50;71.60;;;;;;5017926;28;20102;-86
2022/08/22 12:15:02;;;;;;;6.90;2.45;;;29.30;68.30;;;;;;5012633;28;20044;-86
2022/08/22 12:17:55;;;;;;;7.85;2.85;;;29.80;68.90;;;;;;5016330;28;20049;-86
2022/08/22 12:20:37;;;;;;;19.85;11.90;;;30.10;65.60;;;;;;5024704;28;20055;-85
2022/08/22 12:23:32;;;;;;;11.90;9.52;;;30.50;65.50;;;;;;4999890;28;20583;-85
2022/08/22 12:26:14;;;;;;;9.82;7.93;;;30.90;62.90;;;;;;5002324;28;20044;-85
2022/08/22 12:29:03;;;;;;;11.32;6.60;;;30.70;63.10;;;;;;5003640;28;20519;-86
2022/08/22 12:31:38;;;;;;;7.65;5.40;;;30.80;60.80;;;;;;5012075;28;20041;-86
2022/08/22 12:34:20;;;;;;;13.13;4.25;;;31.00;61.40;;;;;;5028182;28;20044;-86
2022/08/22 12:36:58;;;;;;;8.38;4.32;;;30.50;61.40;;;;;;5012656;28;20044;-85
2022/08/22 12:39:35;;;;;;;9.57;4.00;;;31.10;60.80;;;;;;5027583;28;20475;-86
2022/08/22 12:42:30;;;;;;;8.70;3.80;;;31.20;60.90;;;;;;5016100;28;20486;-86
2022/08/22 12:45:12;;;;;;;6.03;3.70;;;31.70;59.70;;;;;;5035660;28;20048;-86
2022/08/22 12:47:57;;;;;;;8.10;3.10;;;31.80;59.90;;;;;;5008520;28;20068;-86
2022/08/22 12:50:50;;;;;;;11.98;6.72;;;31.30;59.30;;;;;;5013948;28;20044;-86
2022/08/22 12:53:31;;;;;;;18.27;13.60;;;31.50;59.60;;;;;;5010172;28;20495;-87
2022/08/22 12:56:32;;;;;;;9.38;3.55;;;31.40;59.50;;;;;;5006481;28;20045;-86
2022/08/22 12:59:38;;;;;;;8.07;2.50;;;31.20;59.00;;;;;;5035486;28;20040;-86
2022/08/22 13:02:25;;;;;;;7.18;2.30;;;31.60;58.30;;;;;;5031856;28;20044;-86
2022/08/22 13:04:55;;;;;;;8.27;2.45;;;30.50;59.40;;;;;;4998304;28;20056;-85
2022/08/22 13:07:32;;;;;;;8.93;2.42;;;30.40;58.90;;;;;;4998929;28;20049;-85
2022/08/22 13:10:05;;;;;;;7.40;2.35;;;30.10;58.80;;;;;;5007940;28;20123;-86
2022/08/22 13:12:38;;;;;;;6.13;2.08;;;30.90;58.70;;;;;;5033299;28;20063;-85
2022/08/22 13:15:13;;;;;;;5.88;2.35;;;30.90;57.80;;;;;;5020374;28;20263;-86
2022/08/22 13:17:43;;;;;;;9.23;2.55;;;31.30;59.80;;;;;;5003837;28;20496;-86
2022/08/22 13:20:26;;;;;;;8.25;2.85;;;31.90;58.50;;;;;;5007174;28;20072;-85
2022/08/22 13:22:53;;;;;;;7.25;2.50;;;32.10;57.20;;;;;;4997940;28;20070;-86
2022/08/22 13:25:28;;;;;;;6.10;2.25;;;32.60;55.00;;;;;;5035716;28;20041;-86
2022/08/22 13:28:08;;;;;;;7.47;2.28;;;32.60;54.60;;;;;;5005570;28;20083;-86
2022/08/22 13:30:38;;;;;;;8.47;2.57;;;32.50;54.90;;;;;;5018314;28;20040;-86
2022/08/22 13:33:21;;;;;;;9.07;2.10;;;33.40;54.30;;;;;;5007006;28;20630;-87
2022/08/22 13:35:53;;;;;;;7.50;2.67;;;33.50;52.80;;;;;;5002957;28;20511;-89
2022/08/22 13:38:29;;;;;;;8.23;2.20;;;33.30;53.10;;;;;;5000204;28;20516;-88
2022/08/22 13:41:00;;;;;;;7.78;2.40;;;32.40;54.00;;;;;;4996339;28;20135;-86
2022/08/22 13:43:34;;;;;;;6.13;2.10;;;32.50;54.50;;;;;;5012419;28;20044;-85
2022/08/22 13:46:05;;;;;;;17.35;15.50;;;31.90;53.50;;;;;;5028252;28;20052;-85
2022/08/22 13:49:15;;;;;;;12.40;5.35;;;31.90;54.50;;;;;;4999329;28;20460;-84
2022/08/22 13:51:59;;;;;;;6.22;2.55;;;31.50;54.70;;;;;;5005816;28;20517;-86
2022/08/22 13:54:44;;;;;;;8.32;2.47;;;31.90;54.40;;;;;;4979025;28;20464;-85
2022/08/22 13:57:21;;;;;;;6.00;2.30;;;32.20;54.50;;;;;;5001674;28;20106;-85
2022/08/22 14:00:19;;;;;;;8.60;2.50;;;32.30;53.50;;;;;;5026860;28;20115;-85
2022/08/22 14:03:01;;;;;;;7.28;2.47;;;32.10;54.90;;;;;;5034834;28;20137;-85
2022/08/22 14:05:53;;;;;;;7.85;2.50;;;32.70;54.60;;;;;;5014602;28;20048;-85
2022/08/22 14:08:30;;;;;;;6.68;2.58;;;33.10;54.30;;;;;;5015576;28;20108;-85